Terminal Aerodrome Forecast
Issued by NWS Pendleton, OR

Home | Current Version | Previous Version | Text Only | Print | Product List | Glossary On
Versions: 1 2 3 4 5 6 7 8 9 10 11 12 13 14 15
000
FTUS46 KPDT 021120
TAFPDT
TAF
KPDT 021120Z 0212/0312 16006KT P6SM BKN110 OVC200
     FM021400 25012KT P6SM BKN070 OVC100
     FM022000 27014KT P6SM VCSH BKN060 OVC090
     FM030600 25010KT P6SM SCT100 SCT200=

USA.gov is the U.S. government's official web portal to all federal, state and local government web resources and services.